createdAt,value
2019-04-11T00:00:52.242Z,59.08
2019-04-11T00:01:53.453Z,57.53
2019-04-11T00:02:53.214Z,57.63
2019-04-11T00:03:53.457Z,57.45
2019-04-11T00:04:52.555Z,57.45
2019-04-11T00:05:52.882Z,57.56
2019-04-11T00:06:52.171Z,58.80
2019-04-11T00:07:52.290Z,58.28
2019-04-11T00:08:52.375Z,57.04
2019-04-11T00:09:52.147Z,56.93
2019-04-11T00:10:53.421Z,59.31
2019-04-11T00:11:52.415Z,58.07
2019-04-11T00:12:52.111Z,58.07
2019-04-11T00:13:52.147Z,58.51
2019-04-11T00:14:52.088Z,59.00
2019-04-11T00:15:52.955Z,58.31
2019-04-11T00:16:53.107Z,58.72
2019-04-11T00:17:52.336Z,58.62
2019-04-11T00:18:52.045Z,58.83
2019-04-11T00:19:52.052Z,59.55
2019-04-11T00:20:52.724Z,59.14
2019-04-11T00:21:52.948Z,59.66
2019-04-11T00:22:52.638Z,60.38
2019-04-11T00:23:51.987Z,59.89
2019-04-11T00:24:52.009Z,59.96
2019-04-11T00:25:51.958Z,59.89
2019-04-11T00:26:52.724Z,60.20
2019-04-11T00:27:53.060Z,59.47
2019-04-11T00:28:52.100Z,60.51
2019-04-11T00:29:51.937Z,59.99
2019-04-11T00:30:52.510Z,60.30
2019-04-11T00:31:52.774Z,60.93
2019-04-11T00:32:51.905Z,61.13
2019-04-11T00:33:51.873Z,61.16
2019-04-11T00:34:51.879Z,60.64
2019-04-11T00:35:52.243Z,61.99
2019-04-11T00:36:52.673Z,61.44
2019-04-11T00:37:51.829Z,61.16
2019-04-11T00:38:51.823Z,60.85
2019-04-11T00:39:52.123Z,60.85
2019-04-11T00:40:51.805Z,61.36
2019-04-11T00:41:52.377Z,61.05
2019-04-11T00:42:52.619Z,61.47
2019-04-11T00:43:52.573Z,61.68
2019-04-11T00:44:51.775Z,61.26
2019-04-11T00:45:51.918Z,62.12
2019-04-11T00:46:52.889Z,62.43
2019-04-11T00:47:51.727Z,62.33
2019-04-11T00:48:52.833Z,62.12
2019-04-11T00:49:51.726Z,62.43
2019-04-11T00:50:51.744Z,62.74
2019-04-11T00:51:51.959Z,62.33
2019-04-11T00:52:51.724Z,62.95
2019-04-11T00:53:52.063Z,62.85
2019-04-11T00:54:51.671Z,63.37
2019-04-11T00:55:51.635Z,63.06
2019-04-11T00:56:52.648Z,62.54
2019-04-11T00:57:51.606Z,63.57
2019-04-11T00:58:52.043Z,62.95
2019-04-11T00:59:51.613Z,63.06
2019-04-11T01:00:51.575Z,63.06
2019-04-11T01:01:51.613Z,63.19
2019-04-11T01:02:51.580Z,63.16
2019-04-11T01:03:51.622Z,63.68
2019-04-11T01:04:51.549Z,63.78
2019-04-11T01:05:51.966Z,63.89
2019-04-11T01:06:52.238Z,64.92
2019-04-11T01:07:51.497Z,64.92
2019-04-11T01:08:51.645Z,63.78
2019-04-11T01:09:52.658Z,62.74
2019-04-11T01:10:51.813Z,64.51
2019-04-11T01:11:52.202Z,63.37
2019-04-11T01:12:51.562Z,64.51
2019-04-11T01:13:54.635Z,63.99
2019-04-11T01:14:51.439Z,62.64
2019-04-11T01:15:52.360Z,63.68
2019-04-11T01:16:52.604Z,63.16
2019-04-11T01:17:51.737Z,64.20
2019-04-11T01:18:52.040Z,64.02
2019-04-11T01:19:51.387Z,63.81
2019-04-11T01:20:51.527Z,63.29
2019-04-11T01:21:51.343Z,64.54
2019-04-11T01:22:51.342Z,64.02
2019-04-11T01:23:51.371Z,64.54
2019-04-11T01:24:52.318Z,64.54
2019-04-11T01:25:51.327Z,64.43
2019-04-11T01:26:51.772Z,64.64
2019-04-11T01:27:51.461Z,64.54
2019-04-11T01:28:52.431Z,64.85
2019-04-11T01:29:51.570Z,64.54
2019-04-11T01:30:51.369Z,64.95
2019-04-11T01:31:51.670Z,64.75
2019-04-11T01:32:51.229Z,64.98
2019-04-11T01:33:51.815Z,65.68
2019-04-11T01:34:51.276Z,65.68
2019-04-11T01:35:51.213Z,65.08
2019-04-11T01:36:51.343Z,65.39
2019-04-11T01:37:52.213Z,64.95
2019-04-11T01:38:51.163Z,65.37
2019-04-11T01:39:51.644Z,65.29
2019-04-11T01:40:51.155Z,65.19
2019-04-11T01:41:51.161Z,65.60
2019-04-11T01:42:51.389Z,65.29
2019-04-11T01:43:56.459Z,65.08
2019-04-11T01:44:52.692Z,65.58
2019-04-11T01:45:51.811Z,65.68
2019-04-11T01:46:51.084Z,64.77
2019-04-11T01:47:51.120Z,65.91
2019-04-11T01:48:52.055Z,64.75
2019-04-11T01:49:51.039Z,64.85
2019-04-11T01:50:51.823Z,65.89
2019-04-11T01:51:51.024Z,65.50
2019-04-11T01:52:51.016Z,65.91
2019-04-11T01:53:51.119Z,66.96
2019-04-11T01:54:51.874Z,65.89
2019-04-11T01:55:50.989Z,65.60
2019-04-11T01:56:51.637Z,65.68
2019-04-11T01:57:51.905Z,66.02
2019-04-11T01:58:51.038Z,65.99
2019-04-11T01:59:51.334Z,65.89
2019-04-11T02:00:51.004Z,67.55
2019-04-11T02:01:50.918Z,66.09
2019-04-11T02:02:50.899Z,66.22
2019-04-11T02:03:51.731Z,65.47
2019-04-11T02:04:50.869Z,65.60
2019-04-11T02:05:51.609Z,67.58
2019-04-11T02:06:51.048Z,67.03
2019-04-11T02:07:51.072Z,65.58
2019-04-11T02:08:51.377Z,65.58
2019-04-11T02:09:50.823Z,65.68
2019-04-11T02:10:50.877Z,65.06
2019-04-11T02:11:51.946Z,65.81
2019-04-11T02:12:51.099Z,65.91
2019-04-11T02:13:50.768Z,65.70
2019-04-11T02:14:50.761Z,65.70
2019-04-11T02:15:50.759Z,66.12
2019-04-11T02:16:51.130Z,66.20
2019-04-11T02:17:50.964Z,67.37
2019-04-11T02:18:51.874Z,67.44
2019-04-11T02:19:50.706Z,67.03
2019-04-11T02:20:51.377Z,66.61
2019-04-11T02:21:51.724Z,65.99
2019-04-11T02:22:50.805Z,65.39
2019-04-11T02:23:51.116Z,65.70
2019-04-11T02:24:50.645Z,66.12
2019-04-11T02:25:50.642Z,66.02
2019-04-11T02:26:50.656Z,66.44
2019-04-11T02:27:50.616Z,66.33
2019-04-11T02:28:50.920Z,66.44
2019-04-11T02:29:50.941Z,66.22
2019-04-11T02:30:51.235Z,66.44
2019-04-11T02:31:50.815Z,66.44
2019-04-11T02:32:51.871Z,66.96
2019-04-11T02:33:51.241Z,66.85
2019-04-11T02:34:52.371Z,67.16
2019-04-11T02:35:51.850Z,66.47
2019-04-11T02:36:51.347Z,66.54
2019-04-11T02:37:52.062Z,67.16
2019-04-11T02:38:55.097Z,66.22
2019-04-11T02:39:52.056Z,66.85
2019-04-11T02:40:50.490Z,66.75
2019-04-11T02:41:52.679Z,66.54
2019-04-11T02:42:51.960Z,66.33
2019-04-11T02:43:50.979Z,66.54
2019-04-11T02:45:06.395Z,66.67
2019-04-11T02:46:04.534Z,66.78
2019-04-11T02:47:00.689Z,66.67
2019-04-11T02:47:53.957Z,67.40
2019-04-11T02:48:52.037Z,67.61
2019-04-11T02:49:51.805Z,67.50
2019-04-11T02:50:50.888Z,67.06
2019-04-11T02:51:51.298Z,66.99
2019-04-11T02:52:52.119Z,66.67
2019-04-11T02:53:51.875Z,66.67
2019-04-11T02:54:50.334Z,66.57
2019-04-11T02:55:51.871Z,66.88
2019-04-11T02:56:52.388Z,66.57
2019-04-11T02:57:50.813Z,67.40
2019-04-11T02:58:50.479Z,67.19
2019-04-11T02:59:51.227Z,66.78
2019-04-11T03:00:53.026Z,67.40
2019-04-11T03:01:51.030Z,67.71
2019-04-11T03:02:52.556Z,66.99
2019-04-11T03:03:51.833Z,66.91
2019-04-11T03:04:51.022Z,66.81
2019-04-11T03:05:50.850Z,67.22
2019-04-11T03:06:51.849Z,67.12
2019-04-11T03:07:50.420Z,67.54
2019-04-11T03:08:50.887Z,67.46
2019-04-11T03:09:51.042Z,67.12
2019-04-11T03:10:51.414Z,67.46
2019-04-11T03:11:51.535Z,67.46
2019-04-11T03:12:50.142Z,67.46
2019-04-11T03:13:50.483Z,67.67
2019-04-11T03:15:12.639Z,67.67
2019-04-11T03:16:07.383Z,67.57
2019-04-11T03:17:01.165Z,67.36
2019-04-11T03:17:55.406Z,67.46
2019-04-11T03:19:08.135Z,67.36
2019-04-11T03:20:02.767Z,68.01
2019-04-11T03:20:56.822Z,68.71
2019-04-11T03:21:52.411Z,68.71
2019-04-11T03:22:56.898Z,67.88
2019-04-11T03:23:51.450Z,68.22
2019-04-11T03:24:51.218Z,68.50
2019-04-11T03:25:49.982Z,68.53
2019-04-11T03:26:52.034Z,68.84
2019-04-11T03:27:51.646Z,68.84
2019-04-11T03:28:54.111Z,69.09
2019-04-11T03:29:51.631Z,68.84
2019-04-11T03:31:24.409Z,70.75
2019-04-11T03:32:34.579Z,69.78
2019-04-11T03:34:30.549Z,69.57
2019-04-11T03:35:45.744Z,69.15
2019-04-11T03:36:38.003Z,70.20
2019-04-11T03:37:18.976Z,69.37
2019-04-11T03:38:13.773Z,69.15
2019-04-11T03:39:13.087Z,69.15
2019-04-11T03:40:11.446Z,69.15
2019-04-11T03:41:12.051Z,69.47
2019-04-11T03:42:04.116Z,69.50
2019-04-11T03:43:01.213Z,69.50
2019-04-11T03:43:58.954Z,69.60
2019-04-11T03:45:17.603Z,69.71
2019-04-11T03:46:11.987Z,69.71
2019-04-11T03:47:10.121Z,69.81
2019-04-11T03:48:06.171Z,69.92
2019-04-11T03:49:00.119Z,70.64
2019-04-11T03:49:55.762Z,69.50
2019-04-11T03:50:53.259Z,69.50
2019-04-11T03:51:50.708Z,70.54
2019-04-11T03:52:51.702Z,70.33
2019-04-11T03:53:51.426Z,70.23
2019-04-11T03:54:49.795Z,70.12
2019-04-11T03:55:49.649Z,70.12
2019-04-11T03:56:51.177Z,70.05
2019-04-11T03:57:51.385Z,70.89
2019-04-11T03:58:50.371Z,70.95
2019-04-11T03:59:49.666Z,70.26
2019-04-11T04:00:52.719Z,71.30
2019-04-11T04:01:50.848Z,70.99
2019-04-11T04:02:49.704Z,70.47
2019-04-11T04:03:51.101Z,70.57
2019-04-11T04:04:51.238Z,70.99
2019-04-11T04:05:50.616Z,71.09
2019-04-11T04:06:49.946Z,71.20
2019-04-11T04:07:49.512Z,71.09
2019-04-11T04:08:50.752Z,70.68
2019-04-11T04:09:51.067Z,71.61
2019-04-11T04:10:50.048Z,71.30
2019-04-11T04:11:51.102Z,71.20
2019-04-11T04:12:49.482Z,71.72
2019-04-11T04:13:50.208Z,72.17
2019-04-11T04:14:49.606Z,71.86
2019-04-11T04:16:01.872Z,71.96
2019-04-11T04:16:52.788Z,71.65
2019-04-11T04:17:49.777Z,72.48
2019-04-11T04:18:49.402Z,73.00
2019-04-11T04:19:49.944Z,76.20
2019-04-11T04:20:51.047Z,74.77
2019-04-11T04:21:50.965Z,74.66
2019-04-11T04:22:50.083Z,74.21
2019-04-11T04:23:49.771Z,77.03
2019-04-11T04:24:51.112Z,77.44
2019-04-11T04:25:49.462Z,75.67
2019-04-11T04:26:50.280Z,75.15
2019-04-11T04:27:49.767Z,74.63
2019-04-11T04:28:49.297Z,74.43
2019-04-11T04:29:53.245Z,74.21
2019-04-11T04:30:51.674Z,73.80
2019-04-11T04:31:50.763Z,74.21
2019-04-11T04:32:49.420Z,75.57
2019-04-11T04:33:49.240Z,76.40
2019-04-11T04:34:50.829Z,74.01
2019-04-11T04:35:49.598Z,73.28
2019-04-11T04:36:49.721Z,73.59
2019-04-11T04:37:49.825Z,73.90
2019-04-11T04:38:49.416Z,73.80
2019-04-11T04:39:51.822Z,73.56
2019-04-11T04:41:05.819Z,73.18
2019-04-11T04:41:58.798Z,72.86
2019-04-11T04:42:53.305Z,73.38
2019-04-11T04:43:50.739Z,72.86
2019-04-11T04:44:50.807Z,73.18
2019-04-11T04:46:06.627Z,72.69
2019-04-11T04:47:00.256Z,73.32
2019-04-11T04:47:56.939Z,73.63
2019-04-11T04:48:51.480Z,73.94
2019-04-11T04:49:49.069Z,73.52
2019-04-11T04:50:52.295Z,74.04
2019-04-11T04:51:51.139Z,75.29
2019-04-11T04:52:49.311Z,73.94
2019-04-11T04:53:50.159Z,73.83
2019-04-11T04:54:49.091Z,74.04
2019-04-11T04:55:50.304Z,74.98
2019-04-11T04:56:50.306Z,74.25
2019-04-11T04:57:48.967Z,73.94
2019-04-11T04:58:50.649Z,74.15
2019-04-11T04:59:49.065Z,74.56
2019-04-11T05:00:51.123Z,74.56
2019-04-11T05:01:48.922Z,74.70
2019-04-11T05:02:50.340Z,74.80
2019-04-11T05:03:50.881Z,74.15
2019-04-11T05:04:48.885Z,74.25
2019-04-11T05:05:48.901Z,74.56
2019-04-11T05:06:50.903Z,74.46
2019-04-11T05:07:49.847Z,74.77
2019-04-11T05:08:49.308Z,74.70
2019-04-11T05:09:50.353Z,74.66
2019-04-11T05:10:49.194Z,74.46
2019-04-11T05:11:48.874Z,74.70
2019-04-11T05:12:48.798Z,75.19
2019-04-11T05:13:51.386Z,75.29
2019-04-11T05:14:49.836Z,74.46
2019-04-11T05:15:50.356Z,74.66
2019-04-11T05:16:50.443Z,74.66
2019-04-11T05:17:49.194Z,74.77
2019-04-11T05:18:48.737Z,74.77
2019-04-11T05:19:48.838Z,74.56
2019-04-11T05:20:48.734Z,74.77
2019-04-11T05:21:49.824Z,74.56
2019-04-11T05:22:49.287Z,74.46
2019-04-11T05:23:48.678Z,74.56
2019-04-11T05:24:48.669Z,74.35
2019-04-11T05:25:48.733Z,74.46
2019-04-11T05:26:48.655Z,74.43
2019-04-11T05:27:49.671Z,74.35
2019-04-11T05:28:48.868Z,74.53
2019-04-11T05:29:49.465Z,74.53
2019-04-11T05:30:49.094Z,74.66
2019-04-11T05:31:49.254Z,74.32
2019-04-11T05:32:49.307Z,74.43
2019-04-11T05:33:49.698Z,75.67
2019-04-11T05:34:49.045Z,74.63
2019-04-11T05:35:48.566Z,74.43
2019-04-11T05:36:49.816Z,74.21
2019-04-11T05:37:48.525Z,74.32
2019-04-11T05:38:48.681Z,74.29
2019-04-11T05:39:48.507Z,73.80
2019-04-11T05:40:48.537Z,73.66
2019-04-11T05:41:49.836Z,73.77
2019-04-11T05:42:53.409Z,73.56
2019-04-11T05:43:49.551Z,73.77
2019-04-11T05:44:49.864Z,73.56
2019-04-11T05:45:52.222Z,73.66
2019-04-11T05:46:55.765Z,73.66
2019-04-11T05:47:52.987Z,72.93
2019-04-11T05:48:48.407Z,73.14
2019-04-11T05:49:48.483Z,73.14
2019-04-11T05:50:51.084Z,72.59
2019-04-11T05:51:49.351Z,71.51
2019-04-11T05:52:48.360Z,71.51
2019-04-11T05:53:50.085Z,71.31
2019-04-11T05:54:49.782Z,71.72
2019-04-11T05:55:48.334Z,71.10
2019-04-11T05:56:53.040Z,72.14
2019-04-11T05:57:50.210Z,71.31
2019-04-11T05:58:49.351Z,72.97
2019-04-11T05:59:49.964Z,72.11
2019-04-11T06:00:48.898Z,70.68
2019-04-11T06:01:48.841Z,70.79
2019-04-11T06:02:49.230Z,70.48
2019-04-11T06:03:49.232Z,71.07
2019-04-11T06:04:51.980Z,70.48
2019-04-11T06:05:49.933Z,70.48
2019-04-11T06:06:48.229Z,70.34
2019-04-11T06:07:50.622Z,71.10
2019-04-11T06:08:48.309Z,70.23
2019-04-11T06:09:48.258Z,70.34
2019-04-11T06:10:48.382Z,69.82
2019-04-11T06:11:52.269Z,70.03
2019-04-11T06:12:49.159Z,69.92
2019-04-11T06:13:48.867Z,69.71
2019-04-11T06:14:49.230Z,70.13
2019-04-11T06:15:49.180Z,70.65
2019-04-11T06:16:53.722Z,70.34
2019-04-11T06:17:50.113Z,70.65
2019-04-11T06:18:48.248Z,69.71
2019-04-11T06:19:48.098Z,69.68
2019-04-11T06:20:48.263Z,69.79
2019-04-11T06:21:48.490Z,69.68
2019-04-11T06:22:48.051Z,69.79
2019-04-11T06:23:48.018Z,69.65
2019-04-11T06:24:48.251Z,69.24
2019-04-11T06:25:49.134Z,69.03
2019-04-11T06:26:48.924Z,68.93
2019-04-11T06:27:47.971Z,68.51
2019-04-11T06:28:47.987Z,68.30
2019-04-11T06:29:47.958Z,68.93
2019-04-11T06:30:48.540Z,67.96
2019-04-11T06:31:47.925Z,67.37
2019-04-11T06:32:47.939Z,67.65
2019-04-11T06:33:48.993Z,67.44
2019-04-11T06:34:47.895Z,67.65
2019-04-11T06:35:48.309Z,67.44
2019-04-11T06:36:48.275Z,67.55
2019-04-11T06:37:47.902Z,67.34
2019-04-11T06:38:49.169Z,66.78
2019-04-11T06:39:47.860Z,66.78
2019-04-11T06:40:48.133Z,67.10
2019-04-11T06:41:48.621Z,67.20
2019-04-11T06:42:47.827Z,67.20
2019-04-11T06:43:47.990Z,67.10
2019-04-11T06:44:48.078Z,66.78
2019-04-11T06:45:48.106Z,66.47
2019-04-11T06:46:54.037Z,66.47
2019-04-11T06:47:49.234Z,66.24
2019-04-11T06:48:47.777Z,66.03
2019-04-11T06:49:48.647Z,65.62
2019-04-11T06:50:47.780Z,65.69
2019-04-11T06:51:48.394Z,65.59
2019-04-11T06:52:48.795Z,65.80
2019-04-11T06:53:48.419Z,64.73
2019-04-11T06:54:47.673Z,64.31
2019-04-11T06:55:47.723Z,64.31
2019-04-11T06:56:47.647Z,64.21
2019-04-11T06:57:48.090Z,64.52
2019-04-11T06:58:47.980Z,64.21
2019-04-11T06:59:48.439Z,63.48
2019-04-11T07:00:47.611Z,63.48
2019-04-11T07:01:47.658Z,63.97
2019-04-11T07:02:48.689Z,63.35
2019-04-11T07:03:47.569Z,64.07
2019-04-11T07:04:47.596Z,62.70
2019-04-11T07:05:47.548Z,62.60
2019-04-11T07:06:48.194Z,62.70
2019-04-11T07:07:47.591Z,62.29
2019-04-11T07:08:47.534Z,62.18
2019-04-11T07:09:47.507Z,61.67
2019-04-11T07:10:47.501Z,61.87
2019-04-11T07:11:48.479Z,61.57
2019-04-11T07:12:47.476Z,61.25
2019-04-11T07:13:47.708Z,61.36
2019-04-11T07:14:47.623Z,61.05
2019-04-11T07:15:48.470Z,61.74
2019-04-11T07:16:54.761Z,60.74
2019-04-11T07:17:48.416Z,60.50
2019-04-11T07:18:48.411Z,60.53
2019-04-11T07:19:47.991Z,60.09
2019-04-11T07:20:47.388Z,60.68
2019-04-11T07:21:48.248Z,59.99
2019-04-11T07:22:47.362Z,60.47
2019-04-11T07:23:47.383Z,59.41
2019-04-11T07:24:47.492Z,59.52
2019-04-11T07:25:47.464Z,58.79
2019-04-11T07:26:47.934Z,58.59
2019-04-11T07:27:48.528Z,58.48
2019-04-11T07:28:47.964Z,58.66
2019-04-11T07:29:48.326Z,59.72
2019-04-11T07:30:47.401Z,58.69
2019-04-11T07:31:48.296Z,58.17
2019-04-11T07:32:47.757Z,59.28
2019-04-11T07:33:47.423Z,58.35
2019-04-11T07:34:47.811Z,57.94
2019-04-11T07:35:47.714Z,58.22
2019-04-11T07:36:48.374Z,57.09
2019-04-11T07:37:47.611Z,55.54
2019-04-11T07:38:49.233Z,53.99
2019-04-11T07:39:47.354Z,53.99
2019-04-11T07:40:47.540Z,55.02
2019-04-11T07:41:47.889Z,55.00
2019-04-11T07:42:47.153Z,54.48
2019-04-11T07:43:47.727Z,55.72
2019-04-11T07:44:47.302Z,55.59
2019-04-11T07:45:47.147Z,55.59
2019-04-11T07:46:47.352Z,54.77
2019-04-11T07:47:48.189Z,53.94
2019-04-11T07:48:47.095Z,53.40
2019-04-11T07:49:47.165Z,52.70
2019-04-11T07:50:47.059Z,52.78
2019-04-11T07:51:47.039Z,52.68
2019-04-11T07:52:47.043Z,52.06
2019-04-11T07:53:48.076Z,51.65
2019-04-11T07:54:47.781Z,50.49
2019-04-11T07:55:46.997Z,49.46
2019-04-11T07:56:46.985Z,49.07
2019-04-11T07:57:46.978Z,49.98
2019-04-11T07:58:47.890Z,49.17
2019-04-11T07:59:46.961Z,49.17
2019-04-11T08:00:49.952Z,48.74
2019-04-11T08:01:47.002Z,48.74
2019-04-11T08:02:47.802Z,48.33
2019-04-11T08:03:47.048Z,49.87
2019-04-11T08:04:47.318Z,50.70
2019-04-11T08:05:46.895Z,49.77
2019-04-11T08:06:47.944Z,47.06
2019-04-11T08:07:46.914Z,46.78
2019-04-11T08:08:47.133Z,47.81
2019-04-11T08:09:46.849Z,48.97
2019-04-11T08:10:46.835Z,49.17
2019-04-11T08:11:47.806Z,49.30
2019-04-11T08:12:47.945Z,48.14
2019-04-11T08:13:47.191Z,48.14
2019-04-11T08:14:46.811Z,48.04
2019-04-11T08:15:46.813Z,48.10
2019-04-11T08:16:46.925Z,48.10
2019-04-11T08:17:47.996Z,47.27
2019-04-11T08:18:46.744Z,46.92
2019-04-11T08:19:47.012Z,46.51
2019-04-11T08:20:47.793Z,46.18
2019-04-11T08:21:46.709Z,46.47
2019-04-11T08:22:47.518Z,45.93
2019-04-11T08:23:47.733Z,45.21
2019-04-11T08:24:46.881Z,45.64
2019-04-11T08:25:47.415Z,45.25
2019-04-11T08:26:46.659Z,46.59
2019-04-11T08:27:56.070Z,46.59
2019-04-11T08:28:59.277Z,46.92
2019-04-11T08:29:49.998Z,47.74
2019-04-11T08:30:46.901Z,47.15
2019-04-11T08:31:46.678Z,47.48
2019-04-11T08:32:46.608Z,47.48
2019-04-11T08:33:46.809Z,47.81
2019-04-11T08:34:47.865Z,49.25
2019-04-11T08:35:46.553Z,48.22
2019-04-11T08:36:47.687Z,47.31
2019-04-11T08:37:47.574Z,46.47
2019-04-11T08:38:46.767Z,46.70
2019-04-11T08:39:47.176Z,45.54
2019-04-11T08:40:47.186Z,45.03
2019-04-11T08:41:47.535Z,44.18
2019-04-11T08:42:46.777Z,44.98
2019-04-11T08:43:47.582Z,44.65
2019-04-11T08:44:46.463Z,43.12
2019-04-11T08:45:46.635Z,42.70
2019-04-11T08:46:46.900Z,43.09
2019-04-11T08:47:49.258Z,43.19
2019-04-11T08:48:47.437Z,42.66
2019-04-11T08:49:46.434Z,42.13
2019-04-11T08:50:46.982Z,42.05
2019-04-11T08:51:47.380Z,42.07
2019-04-11T08:52:46.558Z,42.49
2019-04-11T08:53:46.369Z,42.49
2019-04-11T08:54:46.377Z,43.03
2019-04-11T08:55:53.610Z,43.44
2019-04-11T08:56:47.472Z,43.05
2019-04-11T08:57:46.351Z,42.94
2019-04-11T08:58:47.035Z,43.48
2019-04-11T08:59:46.302Z,42.86
2019-04-11T09:00:46.409Z,43.30
2019-04-11T09:01:47.220Z,43.30
2019-04-11T09:02:46.262Z,43.59
2019-04-11T09:03:59.273Z,43.30
2019-04-11T09:04:48.229Z,43.19
2019-04-11T09:05:47.064Z,44.12
2019-04-11T09:06:47.168Z,43.19
2019-04-11T09:07:46.202Z,43.09
2019-04-11T09:08:46.933Z,43.30
2019-04-11T09:09:47.401Z,43.17
2019-04-11T09:10:46.391Z,42.74
2019-04-11T09:11:46.974Z,42.93
2019-04-11T09:12:46.807Z,43.03
2019-04-11T09:13:47.226Z,41.49
2019-04-11T09:14:46.486Z,42.74
2019-04-11T09:15:46.156Z,42.54
2019-04-11T09:16:46.117Z,42.52
2019-04-11T09:17:56.544Z,41.80
2019-04-11T09:18:47.088Z,40.75
2019-04-11T09:19:47.254Z,39.92
2019-04-11T09:20:46.071Z,40.01
2019-04-11T09:21:46.650Z,39.89
2019-04-11T09:22:47.124Z,39.66
2019-04-11T09:23:46.129Z,39.22
2019-04-11T09:24:46.477Z,39.01
2019-04-11T09:25:48.827Z,39.50
2019-04-11T09:26:47.884Z,37.35
2019-04-11T09:27:47.033Z,37.76
2019-04-11T09:28:45.994Z,37.26
2019-04-11T09:29:46.276Z,37.77
2019-04-11T09:30:47.228Z,38.41
2019-04-11T09:31:48.559Z,37.79
2019-04-11T09:32:46.529Z,38.43
2019-04-11T09:33:47.005Z,38.14
2019-04-11T09:34:46.116Z,38.45
2019-04-11T09:35:47.159Z,38.45
2019-04-11T09:36:47.170Z,39.37
2019-04-11T09:37:46.213Z,38.34
2019-04-11T09:38:46.456Z,38.96
2019-04-11T09:39:45.844Z,38.45
2019-04-11T09:40:45.844Z,37.52
2019-04-11T09:41:46.859Z,37.11
2019-04-11T09:42:47.024Z,37.01
2019-04-11T09:43:46.327Z,36.17
2019-04-11T09:44:46.732Z,37.40
2019-04-11T09:45:45.834Z,36.68
2019-04-11T09:46:46.218Z,36.15
2019-04-11T09:47:45.790Z,35.94
2019-04-11T09:48:46.322Z,35.85
2019-04-11T09:49:45.748Z,34.70
2019-04-11T09:50:46.832Z,35.62
2019-04-11T09:51:45.746Z,34.19
2019-04-11T09:52:45.719Z,34.19
2019-04-11T09:53:45.696Z,35.30
2019-04-11T09:54:45.691Z,34.80
2019-04-11T09:55:45.807Z,34.49
2019-04-11T09:56:45.684Z,35.72
2019-04-11T09:57:46.133Z,35.74
2019-04-11T09:58:45.646Z,35.64
2019-04-11T09:59:45.663Z,37.18
2019-04-11T10:00:45.613Z,36.77
2019-04-11T10:01:45.632Z,36.99
2019-04-11T10:02:46.193Z,36.15
2019-04-11T10:03:45.612Z,34.61
2019-04-11T10:04:45.850Z,34.20
2019-04-11T10:05:46.754Z,33.38
2019-04-11T10:06:46.598Z,33.06
2019-04-11T10:07:46.083Z,33.26
2019-04-11T10:08:46.627Z,33.36
2019-04-11T10:09:46.312Z,33.55
2019-04-11T10:10:46.559Z,32.01
2019-04-11T10:11:46.337Z,33.25
2019-04-11T10:12:46.526Z,32.00
2019-04-11T10:13:45.476Z,32.31
2019-04-11T10:14:45.954Z,31.90
2019-04-11T10:15:45.493Z,32.82
2019-04-11T10:16:46.522Z,33.12
2019-04-11T10:17:46.394Z,33.33
2019-04-11T10:18:45.447Z,33.03
2019-04-11T10:19:46.434Z,32.87
2019-04-11T10:20:45.580Z,31.18
2019-04-11T10:21:45.743Z,32.84
2019-04-11T10:22:45.952Z,33.98
2019-04-11T10:23:45.386Z,35.95
2019-04-11T10:24:46.319Z,34.22
2019-04-11T10:25:45.633Z,34.77
2019-04-11T10:26:45.337Z,35.30
2019-04-11T10:27:45.315Z,36.03
2019-04-11T10:28:45.980Z,36.56
2019-04-11T10:29:45.285Z,36.05
2019-04-11T10:30:46.117Z,36.79
2019-04-11T10:31:46.410Z,36.36
2019-04-11T10:32:45.567Z,36.15
2019-04-11T10:33:45.242Z,37.06
2019-04-11T10:34:45.879Z,35.62
2019-04-11T10:35:46.198Z,34.92
2019-04-11T10:36:45.383Z,35.85
2019-04-11T10:37:45.211Z,35.85
2019-04-11T10:38:45.201Z,35.93
2019-04-11T10:39:45.801Z,34.28
2019-04-11T10:40:45.180Z,34.38
2019-04-11T10:41:46.299Z,32.63
2019-04-11T10:42:45.158Z,33.12
2019-04-11T10:43:45.137Z,32.61
2019-04-11T10:44:45.752Z,32.92
2019-04-11T10:45:45.111Z,33.03
2019-04-11T10:46:45.130Z,32.61
2019-04-11T10:47:45.091Z,33.03
2019-04-11T10:48:46.965Z,32.70
2019-04-11T10:49:46.195Z,32.92
2019-04-11T10:50:45.061Z,33.22
2019-04-11T10:51:45.616Z,33.62
2019-04-11T10:52:45.049Z,32.61
2019-04-11T10:53:45.027Z,32.90
2019-04-11T10:54:45.116Z,32.70
2019-04-11T10:55:46.081Z,33.00
2019-04-11T10:56:44.991Z,31.88
2019-04-11T10:57:45.119Z,32.28
2019-04-11T10:58:44.974Z,31.88
2019-04-11T10:59:45.022Z,32.29
2019-04-11T11:00:45.306Z,33.03
2019-04-11T11:01:44.937Z,33.54
2019-04-11T11:02:45.296Z,34.34
2019-04-11T11:03:45.198Z,33.52
2019-04-11T11:04:45.473Z,34.65
2019-04-11T11:05:45.082Z,33.84
2019-04-11T11:06:45.114Z,32.82
2019-04-11T11:07:44.961Z,34.05
2019-04-11T11:08:45.819Z,34.27
2019-04-11T11:09:44.847Z,36.34
2019-04-11T11:10:45.870Z,37.47
2019-04-11T11:11:44.821Z,34.27
2019-04-11T11:12:45.492Z,34.89
2019-04-11T11:13:45.775Z,34.28
2019-04-11T11:14:45.055Z,34.39
2019-04-11T11:15:44.777Z,32.95
2019-04-11T11:16:45.588Z,33.77
2019-04-11T11:18:12.629Z,33.55
2019-04-11T11:19:15.703Z,33.86
2019-04-11T11:19:57.384Z,32.93
2019-04-11T11:20:53.079Z,33.96
2019-04-11T11:21:45.738Z,33.44
2019-04-11T11:22:44.713Z,32.92
2019-04-11T11:23:44.983Z,34.56
2019-04-11T11:24:44.683Z,33.84
2019-04-11T11:25:48.463Z,33.83
2019-04-11T11:26:44.670Z,34.05
2019-04-11T11:27:45.775Z,34.24
2019-04-11T11:28:44.629Z,34.77
2019-04-11T11:29:45.363Z,34.68
2019-04-11T11:30:44.811Z,35.30
2019-04-11T11:31:45.909Z,37.26
2019-04-11T11:32:45.343Z,37.06
2019-04-11T11:33:44.956Z,37.38
2019-04-11T11:34:44.627Z,37.38
2019-04-11T11:35:45.737Z,37.38
2019-04-11T11:36:45.728Z,38.43
2019-04-11T11:37:45.200Z,38.53
2019-04-11T11:38:44.544Z,40.30
2019-04-11T11:39:44.543Z,43.87
2019-04-11T11:40:44.813Z,41.41
2019-04-11T11:41:44.784Z,39.56
2019-04-11T11:42:44.496Z,38.32
2019-04-11T11:43:45.394Z,38.84
2019-04-11T11:44:44.731Z,39.37
2019-04-11T11:45:49.157Z,39.80
2019-04-11T11:46:46.536Z,40.21
2019-04-11T11:47:44.908Z,39.80
2019-04-11T11:48:48.743Z,40.62
2019-04-11T11:49:54.621Z,39.82
2019-04-11T11:50:49.035Z,40.13
2019-04-11T11:51:45.759Z,40.85
2019-04-11T11:52:45.474Z,40.33
2019-04-11T11:53:44.374Z,41.96
2019-04-11T11:54:44.345Z,40.62
2019-04-11T11:55:45.428Z,40.52
2019-04-11T11:56:44.480Z,41.24
2019-04-11T11:57:44.834Z,40.62
2019-04-11T11:58:47.873Z,40.31
2019-04-11T11:59:45.286Z,45.15
2019-04-11T12:00:46.248Z,42.66
2019-04-11T12:01:48.998Z,41.24
2019-04-11T12:02:46.383Z,42.47
2019-04-11T12:03:44.554Z,42.27
2019-04-11T12:04:44.356Z,43.12
2019-04-11T12:05:47.968Z,42.80
2019-04-11T12:06:44.206Z,43.12
2019-04-11T12:07:45.192Z,43.65
2019-04-11T12:08:46.612Z,44.57
2019-04-11T12:09:44.720Z,44.06
2019-04-11T12:10:44.169Z,44.37
2019-04-11T12:11:44.218Z,44.47
2019-04-11T12:12:44.270Z,44.70
2019-04-11T12:13:45.281Z,45.01
2019-04-11T12:14:45.348Z,45.21
2019-04-11T12:15:44.137Z,44.90
2019-04-11T12:16:44.127Z,45.21
2019-04-11T12:17:44.894Z,44.70
2019-04-11T12:18:49.777Z,44.98
2019-04-11T12:19:52.940Z,44.98
2019-04-11T12:20:46.469Z,44.37
2019-04-11T12:21:47.231Z,43.34
2019-04-11T12:22:44.380Z,43.13
2019-04-11T12:23:55.479Z,43.34
2019-04-11T12:24:45.068Z,43.03
2019-04-11T12:25:44.998Z,44.08
2019-04-11T12:26:45.768Z,43.24
2019-04-11T12:27:43.979Z,43.13
2019-04-11T12:28:43.959Z,43.24
2019-04-11T12:29:47.869Z,44.06
2019-04-11T12:30:44.146Z,44.96
2019-04-11T12:31:44.058Z,43.12
2019-04-11T12:32:44.394Z,43.54
2019-04-11T12:33:43.919Z,43.01
2019-04-11T12:34:45.140Z,44.57
2019-04-11T12:35:44.369Z,44.35
2019-04-11T12:36:48.059Z,43.93
2019-04-11T12:37:50.461Z,42.80
2019-04-11T12:38:44.875Z,43.21
2019-04-11T12:39:44.022Z,42.60
2019-04-11T12:40:43.836Z,42.40
2019-04-11T12:41:43.838Z,42.49
2019-04-11T12:42:43.824Z,41.98
2019-04-11T12:43:43.801Z,44.53
2019-04-11T12:44:43.800Z,43.12
2019-04-11T12:45:43.783Z,43.21
2019-04-11T12:46:43.772Z,43.93
2019-04-11T12:47:43.802Z,43.91
2019-04-11T12:48:54.529Z,42.37
2019-04-11T12:49:52.398Z,42.99
2019-04-11T12:50:44.717Z,41.33
2019-04-11T12:51:43.736Z,42.97
2019-04-11T12:52:43.702Z,42.35
2019-04-11T12:53:43.693Z,42.35